Time;durP1;ratioP1;P1;durP2;ratioP2;P2;SDS_P1;SDS_P2;PMS_P1;PMS_P2;Temp;Humidity;BMP_temperature;BMP_pressure;BME280_temperature;BME280_humidity;BME280_pressure;Samples;Min_cycle;Max_cycle;Signal;HPM_P1;HPM_P2
2023/01/02 00:00:41;;;;;;;;;5.20;4.00;;;;;14.68;68.68;100625.91;5055929;28;46298;-55
2023/01/02 00:03:06;;;;;;;;;3.50;3.50;;;;;14.66;68.58;100607.94;5053914;28;45418;-56
2023/01/02 00:05:32;;;;;;;;;4.25;3.00;;;;;14.71;68.70;100619.06;5072045;28;45362;-57
2023/01/02 00:07:57;;;;;;;;;4.00;4.00;;;;;14.69;68.90;100635.06;5056752;28;45392;-58
2023/01/02 00:10:23;;;;;;;;;3.00;3.00;;;;;14.70;68.65;100628.44;5054425;28;47233;-59
2023/01/02 00:12:48;;;;;;;;;4.00;4.00;;;;;14.54;69.22;100613.47;5056149;28;45518;-58
2023/01/02 00:15:14;;;;;;;;;5.75;4.00;;;;;14.66;68.75;100633.63;5037862;28;45488;-59
2023/01/02 00:17:39;;;;;;;;;3.75;2.25;;;;;14.59;69.08;100627.38;5072189;28;45567;-59
2023/01/02 00:20:05;;;;;;;;;4.50;3.50;;;;;14.63;68.86;100646.00;5055819;28;45630;-56
2023/01/02 00:22:30;;;;;;;;;5.00;2.50;;;;;14.60;69.20;100637.34;5055807;28;45403;-54
2023/01/02 00:24:56;;;;;;;;;5.00;3.50;;;;;14.59;69.44;100644.81;5055967;28;45412;-56
2023/01/02 00:27:21;;;;;;;;;2.50;2.50;;;;;14.58;69.95;100648.63;5056224;28;45652;-57
2023/01/02 00:29:47;;;;;;;;;5.75;4.00;;;;;14.53;70.20;100647.69;5055684;28;46533;-58
2023/01/02 00:32:13;;;;;;;;;4.25;3.25;;;;;14.39;69.88;100623.06;5055905;28;45264;-58
2023/01/02 00:34:39;;;;;;;;;2.00;2.00;;;;;14.55;70.32;100642.75;5054359;28;45494;-58
2023/01/02 00:37:04;;;;;;;;;4.50;3.50;;;;;14.47;71.13;100639.28;5056184;28;45335;-59
2023/01/02 00:39:30;;;;;;;;;6.25;3.00;;;;;14.52;70.53;100644.09;5064374;28;46005;-59
2023/01/02 00:41:55;;;;;;;;;4.75;2.50;;;;;14.48;70.77;100643.72;5076041;28;45209;-54
2023/01/02 00:44:21;;;;;;;;;3.00;3.00;;;;;14.48;70.84;100648.41;5076068;28;45599;-51
2023/01/02 00:46:46;;;;;;;;;3.25;2.00;;;;;14.51;71.13;100647.91;5058355;28;45511;-55
2023/01/02 00:49:12;;;;;;;;;4.75;3.50;;;;;14.47;71.52;100642.03;5075788;28;46109;-58
2023/01/02 00:51:37;;;;;;;;;2.75;2.50;;;;;14.45;71.48;100644.19;5054584;28;45551;-57
2023/01/02 00:54:03;;;;;;;;;3.75;3.00;;;;;14.43;71.76;100643.63;5073225;28;45280;-58
2023/01/02 00:56:28;;;;;;;;;3.50;2.75;;;;;14.43;71.88;100656.56;5074157;28;45339;-59
2023/01/02 00:58:54;;;;;;;;;3.00;3.00;;;;;14.40;72.37;100648.78;5075537;28;45457;-58
2023/01/02 01:01:19;;;;;;;;;4.25;3.25;;;;;14.40;72.38;100649.59;5075399;28;45453;-59
2023/01/02 01:03:45;;;;;;;;;3.00;3.00;;;;;14.43;71.91;100651.91;5076133;28;45376;-57
2023/01/02 01:06:10;;;;;;;;;2.75;1.00;;;;;14.22;72.52;100621.06;5057646;28;45574;-55
2023/01/02 01:08:36;;;;;;;;;4.00;2.25;;;;;14.37;72.58;100658.38;5075515;28;45395;-55
2023/01/02 01:11:06;;;;;;;;;4.00;2.80;;;;;14.35;72.72;100658.59;5075875;28;45484;-57
2023/01/02 01:13:31;;;;;;;;;3.40;2.40;;;;;14.34;72.53;100647.78;5075259;28;45512;-59
2023/01/02 01:16:06;;;;;;;;;3.00;3.00;;;;;14.31;73.02;100651.88;5075790;28;45482;-60
2023/01/02 01:18:31;;;;;;;;;4.00;3.00;;;;;14.31;73.03;100642.78;5075478;28;45383;-57
2023/01/02 01:20:57;;;;;;;;;2.25;2.25;;;;;14.28;72.74;100649.59;5075226;28;45366;-55
2023/01/02 01:23:22;;;;;;;;;4.75;4.50;;;;;14.29;73.28;100661.50;5075528;28;45480;-59
2023/01/02 01:25:48;;;;;;;;;4.25;3.00;;;;;14.28;73.49;100660.66;5075139;28;45385;-59
2023/01/02 01:28:14;;;;;;;;;2.25;1.25;;;;;14.27;72.96;100666.41;5056766;28;46349;-59
2023/01/02 01:30:39;;;;;;;;;4.75;3.00;;;;;14.23;72.99;100668.78;5074804;28;45896;-59
2023/01/02 01:33:05;;;;;;;;;3.75;3.75;;;;;14.23;73.55;100666.03;5075476;28;45371;-59
2023/01/02 01:35:32;;;;;;;;;3.00;3.00;;;;;14.05;73.62;100634.69;5075138;28;45501;-56
2023/01/02 01:37:58;;;;;;;;;4.00;4.00;;;;;14.07;74.02;100638.06;5074551;28;45775;-54
2023/01/02 01:40:23;;;;;;;;;2.00;1.50;;;;;14.26;74.12;100656.44;5075024;28;45364;-57
2023/01/02 01:42:49;;;;;;;;;5.25;2.25;;;;;14.24;74.13;100653.91;5057048;28;45344;-59
2023/01/02 01:45:14;;;;;;;;;2.25;2.25;;;;;14.21;73.86;100657.16;5075448;28;45507;-59
2023/01/02 01:47:58;;;;;;;;;1.75;1.50;;;;;14.11;74.24;100638.44;5056632;28;47544;-59
2023/01/02 01:50:29;;;;;;;;;2.00;2.00;;;;;14.22;74.08;100673.50;5074896;28;45183;-58
2023/01/02 01:53:15;;;;;;;;;3.40;2.00;;;;;14.09;73.61;100657.16;5074004;27;45428;-59
2023/01/02 01:55:51;;;;;;;;;2.60;2.40;;;;;14.14;74.23;100673.81;5073744;27;45392;-55
2023/01/02 01:58:40;;;;;;;;;1.20;1.20;;;;;14.17;73.66;100692.69;5056774;28;47908;-59
2023/01/02 02:01:06;;;;;;;;;3.00;1.60;;;;;14.00;73.93;100669.59;5074715;28;45224;-59
2023/01/02 02:03:32;;;;;;;;;3.00;3.00;;;;;14.10;74.22;100698.28;5074778;28;45514;-56
2023/01/02 02:05:57;;;;;;;;;4.00;2.00;;;;;14.14;74.64;100706.13;5073524;28;45703;-56
2023/01/02 02:08:32;;;;;;;;;1.00;1.00;;;;;14.15;74.47;100727.94;5056444;28;46432;-56
2023/01/02 02:10:58;;;;;;;;;3.00;1.60;;;;;14.09;74.61;100721.47;5074665;28;45321;-59
2023/01/02 02:13:23;;;;;;;;;2.00;2.00;;;;;13.94;74.54;100696.22;5056632;28;45437;-59
2023/01/02 02:16:00;;;;;;;;;2.00;2.00;;;;;13.93;74.57;100706.41;5073393;27;45480;-56
2023/01/02 02:18:44;;;;;;;;;2.00;2.00;;;;;14.10;74.54;100742.44;5073109;28;45408;-60
2023/01/02 02:21:31;;;;;;;;;2.00;2.00;;;;;14.11;75.04;100743.31;5074486;28;45255;-59
2023/01/02 02:24:21;;;;;;;;;1.80;1.80;;;;;14.09;74.88;100749.06;5074734;28;45346;-59
2023/01/02 02:26:58;;;;;;;;;2.80;1.80;;;;;14.07;75.08;100753.13;5076306;28;45523;-55
2023/01/02 02:30:01;;;;;;;;;2.60;2.60;;;;;14.05;75.51;100741.47;5059744;28;46009;-59
2023/01/02 02:32:51;;;;;;;;;0.60;0.40;;;;;14.04;75.60;100748.91;5078030;28;45298;-59
2023/01/02 02:35:25;;;;;;;;;2.40;2.40;;;;;14.06;75.55;100746.78;5044089;28;45382;-59
2023/01/02 02:37:59;;;;;;;;;1.80;1.80;;;;;14.07;76.10;100750.38;5077978;28;45390;-57
2023/01/02 02:40:49;;;;;;;;;0.00;0.00;;;;;14.06;76.09;100752.28;5060144;28;45376;-56
2023/01/02 02:43:23;;;;;;;;;4.00;1.20;;;;;14.09;76.22;100756.50;5076248;28;45411;-52
2023/01/02 02:46:27;;;;;;;;;4.00;2.80;;;;;14.04;76.16;100739.81;5059836;28;45475;-59
2023/01/02 02:49:11;;;;;;;;;1.00;1.00;;;;;14.04;77.00;100754.44;5060117;28;45295;-59
2023/01/02 02:51:48;;;;;;;;;2.00;1.00;;;;;14.03;76.91;100747.22;5077703;28;45409;-58
2023/01/02 02:54:22;;;;;;;;;1.00;1.00;;;;;14.03;77.01;100743.66;5060869;28;45547;-56
2023/01/02 02:56:48;;;;;;;;;1.00;1.00;;;;;13.99;77.01;100731.38;5076505;28;45401;-58
2023/01/02 02:59:14;;;;;;;;;2.50;1.00;;;;;14.00;77.30;100738.59;5042968;28;45380;-59
2023/01/02 03:01:40;;;;;;;;;1.00;1.00;;;;;13.79;77.31;100719.59;5042581;28;45416;-55
2023/01/02 03:04:19;;;;;;;;;0.80;0.80;;;;;13.80;77.17;100721.25;5078045;28;45230;-54
2023/01/02 03:07:03;;;;;;;;;2.20;0.60;;;;;13.92;77.05;100750.78;5052260;28;45814;-59
2023/01/02 03:09:57;;;;;;;;;3.00;1.00;;;;;13.92;77.50;100762.69;5078172;28;45418;-59
2023/01/02 03:12:28;;;;;;;;;1.60;1.20;;;;;13.91;77.08;100761.00;5077128;28;46135;-58
2023/01/02 03:15:06;;;;;;;;;0.80;0.80;;;;;13.87;77.37;100756.19;5077512;28;45364;-60
2023/01/02 03:17:51;;;;;;;;;1.80;1.00;;;;;13.85;76.58;100750.03;5060264;28;45269;-58
2023/01/02 03:20:17;;;;;;;;;0.00;0.00;;;;;13.60;76.58;100720.69;5062462;28;45344;-59
2023/01/02 03:22:45;;;;;;;;;1.00;1.00;;;;;13.74;77.03;100755.28;5059059;28;45704;-59
2023/01/02 03:25:11;;;;;;;;;1.20;0.60;;;;;13.78;76.50;100755.66;5038134;28;45417;-59
2023/01/02 03:27:38;;;;;;;;;2.00;0.00;;;;;13.72;76.56;100751.06;5072775;28;45377;-59
2023/01/02 03:30:09;;;;;;;;;0.00;0.00;;;;;13.77;76.36;100743.78;5039202;28;45424;-53
2023/01/02 03:32:38;;;;;;;;;0.00;0.00;;;;;13.67;75.29;100738.00;5055627;28;47180;-58
2023/01/02 03:35:07;;;;;;;;;0.00;0.00;;;;;13.59;75.09;100735.53;5022502;28;45406;-60
2023/01/02 03:37:34;;;;;;;;;0.00;0.00;;;;;13.71;75.51;100750.22;5039051;28;45387;-59
2023/01/02 03:40:02;;;;;;;;;0.00;0.00;;;;;13.74;74.90;100755.28;5060275;28;45300;-54
2023/01/02 03:42:37;;;;;;;;;0.60;0.60;;;;;13.74;74.71;100765.47;5075817;28;45416;-57
2023/01/02 03:45:06;;;;;;;;;0.00;0.00;;;;;13.75;74.46;100773.53;5059246;28;45342;-60
2023/01/02 03:47:36;;;;;;;;;0.00;0.00;;;;;13.68;74.63;100770.00;5077104;28;45483;-51
2023/01/02 03:50:06;;;;;;;;;1.00;0.00;;;;;13.69;74.14;100786.34;5059398;28;45407;-56
2023/01/02 03:52:31;;;;;;;;;0.00;0.00;;;;;13.63;74.43;100784.50;5076742;28;47246;-57
2023/01/02 03:54:57;;;;;;;;;0.00;0.00;;;;;13.63;74.21;100784.50;5058907;28;45302;-57
2023/01/02 03:57:31;;;;;;;;;0.00;0.00;;;;;13.58;74.98;100781.59;5075707;28;45341;-57
2023/01/02 04:00:02;;;;;;;;;0.00;0.00;;;;;13.62;74.64;100796.59;5043030;28;45338;-58
2023/01/02 04:02:46;;;;;;;;;0.60;0.00;;;;;13.63;74.55;100797.44;5058762;28;45371;-59
2023/01/02 04:05:19;;;;;;;;;0.00;0.00;;;;;13.62;74.58;100806.78;5043776;28;45426;-57
2023/01/02 04:08:09;;;;;;;;;0.60;0.60;;;;;13.60;74.25;100801.50;5041619;28;45453;-53
2023/01/02 04:10:36;;;;;;;;;0.00;0.00;;;;;13.48;74.58;100789.53;5059496;28;45436;-56
2023/01/02 04:13:03;;;;;;;;;0.00;0.00;;;;;13.58;74.38;100816.56;5058493;28;45831;-59
2023/01/02 04:15:32;;;;;;;;;0.00;0.00;;;;;13.52;74.79;100796.28;5058608;28;45471;-59
2023/01/02 04:18:34;;;;;;;;;0.80;0.00;;;;;13.48;74.57;100806.94;5058920;28;45429;-55
2023/01/02 04:21:08;;;;;;;;;0.00;0.00;;;;;13.28;74.83;100790.59;4993926;28;45488;-57
2023/01/02 04:23:37;;;;;;;;;1.00;0.00;;;;;13.23;74.94;100776.66;5035559;28;46569;-56
2023/01/02 04:26:09;;;;;;;;;0.00;0.00;;;;;13.39;74.63;100809.13;5058342;28;45867;-58
2023/01/02 04:28:34;;;;;;;;;0.00;0.00;;;;;13.10;74.78;100763.88;5058915;28;45424;-51
2023/01/02 04:31:07;;;;;;;;;0.00;0.00;;;;;13.27;75.04;100816.47;5058538;28;46146;-53
2023/01/02 04:33:36;;;;;;;;;0.00;0.00;;;;;13.21;75.49;100818.22;5058487;28;46321;-57
2023/01/02 04:36:12;;;;;;;;;0.00;0.00;;;;;13.25;75.75;100826.88;5058076;28;45512;-57
2023/01/02 04:38:37;;;;;;;;;0.00;0.00;;;;;13.09;75.41;100789.75;5092432;27;45392;-58
2023/01/02 04:41:03;;;;;;;;;0.00;0.00;;;;;13.29;75.97;100822.63;5076300;28;45519;-58
2023/01/02 04:43:28;;;;;;;;;0.00;0.00;;;;;13.29;75.46;100826.19;5051474;27;46789;-59
2023/01/02 04:45:54;;;;;;;;;0.00;0.00;;;;;13.33;75.79;100836.78;5076353;28;45306;-59
2023/01/02 04:48:20;;;;;;;;;0.00;0.00;;;;;13.36;75.52;100842.69;5074934;27;45270;-56
2023/01/02 04:50:45;;;;;;;;;0.00;0.00;;;;;13.36;76.00;100853.72;5075742;28;45591;-54
2023/01/02 04:53:11;;;;;;;;;0.00;0.00;;;;;13.19;75.31;100823.13;5075706;28;46196;-54
2023/01/02 04:55:37;;;;;;;;;1.00;1.00;;;;;13.36;75.59;100850.94;5076042;28;45684;-54
2023/01/02 04:58:03;;;;;;;;;0.00;0.00;;;;;13.31;76.05;100860.94;5075689;28;45379;-54
2023/01/02 05:00:28;;;;;;;;;0.00;0.00;;;;;13.31;76.22;100859.06;5057971;28;45636;-57
2023/01/02 05:02:53;;;;;;;;;0.00;0.00;;;;;13.30;75.93;100871.16;5075544;28;45509;-56
2023/01/02 05:05:19;;;;;;;;;1.00;0.00;;;;;13.15;75.91;100847.53;5076063;28;45940;-57
2023/01/02 05:07:45;;;;;;;;;0.00;0.00;;;;;13.27;76.27;100872.44;5057659;28;45917;-58
2023/01/02 05:10:10;;;;;;;;;0.00;0.00;;;;;13.10;75.88;100850.13;5057835;28;45446;-57
2023/01/02 05:12:36;;;;;;;;;0.00;0.00;;;;;13.27;75.95;100885.38;5075670;28;45394;-57
2023/01/02 05:15:02;;;;;;;;;0.25;0.00;;;;;13.06;75.89;100861.81;5075383;28;45853;-57
2023/01/02 05:17:28;;;;;;;;;0.00;0.00;;;;;13.23;76.42;100893.25;5075635;28;45350;-57
2023/01/02 05:19:54;;;;;;;;;0.00;0.00;;;;;13.22;75.77;100897.09;5076033;28;45246;-52
2023/01/02 05:25:04;;;;;;;;;0.00;0.00;;;;;13.25;75.83;100906.81;5075579;28;45246;-54
2023/01/02 05:27:30;;;;;;;;;0.00;0.00;;;;;13.07;75.59;100888.31;5075231;28;45367;-54
2023/01/02 05:29:55;;;;;;;;;0.00;0.00;;;;;13.26;75.47;100919.53;5075910;28;45523;-55
2023/01/02 05:32:21;;;;;;;;;0.00;0.00;;;;;13.23;75.67;100920.81;5074460;28;46124;-55
2023/01/02 05:34:46;;;;;;;;;0.00;0.00;;;;;13.22;75.31;100927.41;5075109;28;45291;-56
2023/01/02 05:37:12;;;;;;;;;1.00;0.00;;;;;13.21;75.97;100930.38;5075257;28;45663;-56
2023/01/02 05:39:37;;;;;;;;;0.00;0.00;;;;;13.18;76.15;100930.84;5075505;28;45448;-56
2023/01/02 05:42:03;;;;;;;;;0.00;0.00;;;;;13.18;75.70;100939.94;5074807;28;45993;-58
2023/01/02 05:44:28;;;;;;;;;0.00;0.00;;;;;13.00;75.59;100922.28;5074811;28;45551;-57
2023/01/02 05:46:54;;;;;;;;;0.00;0.00;;;;;13.15;75.64;100955.00;5061985;27;45493;-57
2023/01/02 05:49:19;;;;;;;;;0.00;0.00;;;;;13.14;75.70;100950.56;5074709;28;45799;-53
2023/01/02 05:51:44;;;;;;;;;0.25;0.00;;;;;13.14;76.17;100958.81;5074424;28;46034;-53
2023/01/02 05:54:10;;;;;;;;;0.00;0.00;;;;;13.08;76.16;100951.44;5074735;28;45396;-50
2023/01/02 05:56:36;;;;;;;;;0.00;0.00;;;;;13.07;76.05;100951.69;5074970;28;45403;-55
2023/01/02 05:59:01;;;;;;;;;0.00;0.00;;;;;13.11;76.10;100967.56;5074802;28;45412;-56
2023/01/02 06:01:28;;;;;;;;;1.00;0.00;;;;;13.12;75.70;100958.22;5073528;28;46377;-55
2023/01/02 06:03:55;;;;;;;;;0.00;0.00;;;;;13.12;76.30;100952.69;5056567;28;45437;-56
2023/01/02 06:06:23;;;;;;;;;0.00;0.00;;;;;13.11;75.60;100956.53;5074823;28;45281;-57
2023/01/02 06:08:49;;;;;;;;;0.00;0.00;;;;;13.14;75.78;100963.50;5074692;28;45414;-53
2023/01/02 06:11:14;;;;;;;;;2.00;0.00;;;;;13.13;76.01;100965.41;5074598;28;45462;-53
2023/01/02 06:13:40;;;;;;;;;0.00;0.00;;;;;13.10;75.83;100968.63;5074086;28;45363;-50
2023/01/02 06:16:07;;;;;;;;;0.00;0.00;;;;;13.09;76.05;100966.94;5074909;28;45471;-55
2023/01/02 06:18:33;;;;;;;;;0.00;0.00;;;;;13.06;76.04;100964.63;5074567;28;45308;-55
2023/01/02 06:20:59;;;;;;;;;1.00;0.00;;;;;13.11;75.69;100983.22;5072908;28;45378;-58
2023/01/02 06:23:25;;;;;;;;;0.60;0.60;;;;;12.96;75.63;100964.28;5074461;28;45413;-56
2023/01/02 06:25:50;;;;;;;;;0.00;0.00;;;;;13.06;75.81;100981.16;5074461;28;45468;-58
2023/01/02 06:28:16;;;;;;;;;0.00;0.00;;;;;13.07;75.84;100985.59;5074672;28;45386;-56
2023/01/02 06:30:41;;;;;;;;;0.00;0.00;;;;;13.08;75.96;100987.28;5055693;28;46972;-54
2023/01/02 06:33:07;;;;;;;;;0.00;0.00;;;;;13.06;75.92;100986.66;5056092;28;45330;-53
2023/01/02 06:35:32;;;;;;;;;0.00;0.00;;;;;13.04;75.55;100987.94;5074252;28;45491;-51
2023/01/02 06:37:58;;;;;;;;;1.00;1.00;;;;;13.09;75.96;100999.16;5056284;28;45653;-49
2023/01/02 06:40:23;;;;;;;;;3.75;3.75;;;;;13.06;75.86;101003.19;5074009;28;46447;-53
2023/01/02 06:42:48;;;;;;;;;0.00;0.00;;;;;13.06;75.63;101003.19;5055545;28;45888;-57
2023/01/02 06:45:14;;;;;;;;;0.00;0.00;;;;;12.86;75.88;100979.38;5074771;28;45411;-55
2023/01/02 06:47:39;;;;;;;;;0.00;0.00;;;;;12.99;75.59;100999.66;5074345;28;45416;-59
2023/01/02 06:50:05;;;;;;;;;0.00;0.00;;;;;12.97;75.90;101007.28;5074548;28;46140;-57
2023/01/02 06:52:31;;;;;;;;;0.00;0.00;;;;;12.98;76.44;101014.50;5073995;28;45410;-59
2023/01/02 06:54:56;;;;;;;;;1.00;0.00;;;;;12.74;76.22;100968.22;5074410;28;45475;-57
2023/01/02 06:57:22;;;;;;;;;1.00;1.00;;;;;12.96;76.10;101005.63;5074442;28;45435;-57
2023/01/02 06:59:47;;;;;;;;;1.00;0.00;;;;;12.94;76.37;100999.47;5073795;28;46088;-57
2023/01/02 07:02:13;;;;;;;;;0.00;0.00;;;;;12.86;75.66;100992.31;5074112;28;45400;-53
2023/01/02 07:04:38;;;;;;;;;0.00;0.00;;;;;12.78;76.15;100992.56;5074370;28;45360;-53
2023/01/02 07:07:04;;;;;;;;;0.00;0.00;;;;;12.81;76.47;100994.88;5074412;28;45219;-55
2023/01/02 07:09:30;;;;;;;;;0.00;0.00;;;;;12.66;76.28;100974.00;5056117;28;46018;-57
2023/01/02 07:11:57;;;;;;;;;0.00;0.00;;;;;12.90;76.45;101006.50;5074320;28;45212;-56
2023/01/02 07:14:22;;;;;;;;;0.00;0.00;;;;;12.93;76.36;101011.53;5059607;28;45853;-58
2023/01/02 07:16:48;;;;;;;;;0.00;0.00;;;;;12.87;76.44;101011.34;5077368;28;45648;-58
2023/01/02 07:19:13;;;;;;;;;0.00;0.00;;;;;12.31;75.68;100919.31;5077237;28;46461;-59
2023/01/02 07:21:39;;;;;;;;;0.00;0.00;;;;;12.89;75.88;101019.41;5077700;28;45341;-58
2023/01/02 07:24:05;;;;;;;;;0.00;0.00;;;;;12.87;75.64;101025.13;5077063;28;45438;-57
2023/01/02 07:26:30;;;;;;;;;0.00;0.00;;;;;12.88;75.52;101023.22;5077670;28;45551;-57
2023/01/02 07:28:56;;;;;;;;;1.25;0.25;;;;;12.90;75.68;101031.28;5077149;28;46068;-57
2023/01/02 07:31:21;;;;;;;;;0.00;0.00;;;;;12.88;75.90;101028.75;5058827;28;45451;-52
2023/01/02 07:33:47;;;;;;;;;0.00;0.00;;;;;12.88;75.70;101023.22;5077569;28;45342;-55
2023/01/02 07:36:16;;;;;;;;;0.00;0.00;;;;;12.66;75.40;100989.66;5059296;28;45595;-56
2023/01/02 07:38:42;;;;;;;;;0.00;0.00;;;;;12.69;74.93;101002.97;5076813;28;45470;-57
2023/01/02 07:41:14;;;;;;;;;1.75;0.00;;;;;12.84;75.11;101039.38;5077026;28;45532;-59
2023/01/02 07:43:40;;;;;;;;;0.00;0.00;;;;;12.86;75.45;101042.72;5077039;28;45283;-52
2023/01/02 07:46:06;;;;;;;;;0.00;0.00;;;;;12.90;75.19;101050.56;5076097;28;45669;-55
2023/01/02 07:48:31;;;;;;;;;0.00;0.00;;;;;12.90;75.22;101048.63;5075323;28;45279;-53
2023/01/02 07:51:03;;;;;;;;;0.00;0.00;;;;;12.84;75.15;101055.88;5077045;28;45920;-56
2023/01/02 07:53:29;;;;;;;;;0.00;0.00;;;;;12.85;74.81;101063.09;5076971;28;45272;-57
2023/01/02 07:55:55;;;;;;;;;0.25;0.25;;;;;12.84;75.05;101074.31;5077554;28;45597;-59
2023/01/02 07:58:20;;;;;;;;;0.00;0.00;;;;;12.85;74.93;101079.59;5076561;28;45865;-58
2023/01/02 08:00:46;;;;;;;;;0.00;0.00;;;;;12.85;74.88;101084.25;5077091;28;45271;-56
2023/01/02 08:03:11;;;;;;;;;0.00;0.00;;;;;12.84;75.17;101083.44;5076753;28;45429;-54
2023/01/02 08:05:37;;;;;;;;;0.00;0.00;;;;;12.84;74.54;101094.44;5077394;28;45582;-52
2023/01/02 08:08:02;;;;;;;;;1.00;0.00;;;;;12.61;74.74;101062.75;5075264;28;45656;-58
2023/01/02 08:10:28;;;;;;;;;0.00;0.00;;;;;12.63;74.78;101081.81;5075087;28;45477;-60
2023/01/02 08:12:53;;;;;;;;;0.00;0.00;;;;;12.56;75.06;101076.34;5058627;28;45455;-58
2023/01/02 08:15:19;;;;;;;;;0.00;0.00;;;;;12.78;74.80;101114.59;5046395;28;45448;-58
2023/01/02 08:17:44;;;;;;;;;0.00;0.00;;;;;12.74;74.98;101113.34;5062828;28;45429;-59
2023/01/02 08:20:10;;;;;;;;;0.00;0.00;;;;;12.73;74.50;101111.66;5076831;28;45381;-60
2023/01/02 08:22:36;;;;;;;;;0.00;0.00;;;;;12.71;74.84;101119.28;5076848;28;45440;-59
2023/01/02 08:25:01;;;;;;;;;0.00;0.00;;;;;12.70;74.72;101126.69;5075988;28;45330;-59
2023/01/02 08:27:27;;;;;;;;;0.00;0.00;;;;;12.66;74.75;101130.09;5076255;28;45302;-58
2023/01/02 08:29:52;;;;;;;;;0.75;0.00;;;;;12.64;74.37;101132.25;5076663;28;45382;-55
2023/01/02 08:32:18;;;;;;;;;0.00;0.00;;;;;12.64;74.68;101135.00;5058170;28;45286;-57
2023/01/02 08:34:43;;;;;;;;;0.00;0.00;;;;;12.46;74.48;101107.09;5058488;28;45554;-58
2023/01/02 08:37:09;;;;;;;;;0.00;0.00;;;;;12.61;73.91;101137.09;5076300;28;45209;-60
2023/01/02 08:39:34;;;;;;;;;0.00;0.00;;;;;12.65;74.00;101136.69;5075911;28;45367;-58
2023/01/02 08:42:00;;;;;;;;;0.00;0.00;;;;;12.46;74.19;101120.00;5076266;28;45303;-59
2023/01/02 08:44:25;;;;;;;;;0.00;0.00;;;;;12.60;73.43;101146.41;5075917;28;45640;-60
2023/01/02 08:46:51;;;;;;;;;0.00;0.00;;;;;12.60;73.66;101162.94;5074359;28;45374;-62
2023/01/02 08:49:16;;;;;;;;;0.00;0.00;;;;;12.53;73.49;101173.13;5076088;28;45940;-59
2023/01/02 08:51:42;;;;;;;;;1.50;0.00;;;;;12.50;73.62;101192.84;5053881;28;45748;-59
2023/01/02 08:54:07;;;;;;;;;3.50;2.25;;;;;12.36;74.05;101174.63;5072566;28;45463;-59
2023/01/02 08:56:34;;;;;;;;;0.25;0.25;;;;;12.57;73.75;101220.34;5073846;28;46200;-58
2023/01/02 08:59:04;;;;;;;;;0.80;0.00;;;;;12.55;73.63;101225.25;5073254;28;45531;-56
2023/01/02 09:01:30;;;;;;;;;1.00;1.00;;;;;12.54;73.15;101232.63;5073749;28;45463;-58
2023/01/02 09:03:56;;;;;;;;;0.00;0.00;;;;;12.49;73.66;101250.88;5072707;28;45567;-58
2023/01/02 09:06:22;;;;;;;;;0.00;0.00;;;;;12.49;73.44;101268.22;5055568;28;45449;-60
2023/01/02 09:08:51;;;;;;;;;0.00;0.00;;;;;12.45;73.73;101259.53;5038817;28;45550;-53
2023/01/02 09:11:18;;;;;;;;;0.00;0.00;;;;;12.30;74.15;101236.88;5053013;28;45382;-51
2023/01/02 09:13:43;;;;;;;;;0.40;0.00;;;;;12.16;73.75;101214.00;5072650;28;45599;-54
2023/01/02 09:16:09;;;;;;;;;0.00;0.00;;;;;12.45;74.30;101259.53;5035418;28;45758;-58
2023/01/02 09:18:35;;;;;;;;;0.00;0.00;;;;;12.47;73.93;101248.31;5011204;28;45434;-58
2023/01/02 09:21:00;;;;;;;;;0.00;0.00;;;;;12.50;73.80;101242.41;5067805;28;45400;-58
2023/01/02 09:23:26;;;;;;;;;0.00;0.00;;;;;12.50;73.82;101233.28;5072512;28;45827;-58
2023/01/02 09:25:52;;;;;;;;;0.75;0.75;;;;;12.49;74.53;101228.84;5071844;28;46288;-60
2023/01/02 09:28:17;;;;;;;;;0.00;0.00;;;;;12.47;73.94;101248.31;5071058;28;46353;-57
2023/01/02 09:30:43;;;;;;;;;1.00;0.00;;;;;12.46;74.00;101254.88;5071942;28;45417;-58
2023/01/02 09:33:08;;;;;;;;;0.00;0.00;;;;;12.40;74.26;101264.84;5072439;28;45360;-58
2023/01/02 09:35:34;;;;;;;;;0.00;0.00;;;;;12.44;74.03;101276.28;5071856;28;46273;-55
2023/01/02 09:37:59;;;;;;;;;0.75;0.00;;;;;12.45;74.36;101276.06;5087468;27;45829;-53
2023/01/02 09:40:25;;;;;;;;;0.00;0.00;;;;;12.39;74.35;101271.38;5071203;28;45347;-57
2023/01/02 09:42:50;;;;;;;;;2.00;1.00;;;;;12.40;74.13;101275.00;5053569;28;45662;-55
2023/01/02 09:45:16;;;;;;;;;0.00;0.00;;;;;12.46;73.95;101285.16;5053948;28;45765;-57
2023/01/02 09:47:42;;;;;;;;;0.00;0.00;;;;;12.48;74.24;101291.31;5053832;28;45481;-56
2023/01/02 09:50:13;;;;;;;;;0.00;0.00;;;;;12.44;74.36;101282.63;5054646;28;45487;-58
2023/01/02 09:52:41;;;;;;;;;0.40;0.00;;;;;12.51;74.11;101304.66;5034477;28;45911;-57
2023/01/02 09:55:14;;;;;;;;;1.20;1.20;;;;;12.47;74.22;101326.25;5072393;28;45435;-54
2023/01/02 09:58:02;;;;;;;;;0.00;0.00;;;;;12.44;74.18;101328.59;5071627;27;45755;-58
2023/01/02 10:00:30;;;;;;;;;0.00;0.00;;;;;12.48;74.06;101338.09;5057383;28;45445;-58
2023/01/02 10:03:32;;;;;;;;;0.00;0.00;;;;;12.48;74.17;101349.13;5072166;28;45705;-58
2023/01/02 10:06:04;;;;;;;;;0.00;0.00;;;;;12.44;74.22;101337.69;5072782;28;45790;-58
2023/01/02 10:08:54;;;;;;;;;0.00;0.00;;;;;12.43;74.51;101340.66;5071848;27;45760;-55
2023/01/02 10:11:39;;;;;;;;;0.00;0.00;;;;;12.23;74.77;101313.09;5073335;28;45398;-57
2023/01/02 10:14:07;;;;;;;;;0.00;0.00;;;;;12.43;74.65;101340.66;5073155;28;45695;-57
2023/01/02 10:16:37;;;;;;;;;2.40;1.00;;;;;12.43;74.88;101335.16;5053590;28;45859;-58
2023/01/02 10:19:05;;;;;;;;;0.00;0.00;;;;;12.45;75.29;101327.53;5053840;28;45358;-54
2023/01/02 10:21:37;;;;;;;;;0.00;0.00;;;;;12.43;75.41;101318.66;5072919;28;45460;-56
2023/01/02 10:24:24;;;;;;;;;1.00;1.00;;;;;12.04;75.35;101239.41;5071518;28;45539;-60
2023/01/02 10:26:51;;;;;;;;;1.60;1.00;;;;;12.33;75.20;101283.28;5054826;28;45800;-60
2023/01/02 10:29:29;;;;;;;;;2.00;0.60;;;;;12.32;75.07;101285.16;5067487;28;45443;-58
2023/01/02 10:31:59;;;;;;;;;1.20;1.20;;;;;12.50;74.90;101302.13;5001791;28;45760;-59
2023/01/02 10:34:32;;;;;;;;;1.80;0.00;;;;;12.51;74.50;101314.81;5052256;28;45597;-58
2023/01/02 10:36:58;;;;;;;;;0.00;0.00;;;;;12.51;74.74;101339.59;5034480;28;46384;-59
2023/01/02 10:39:25;;;;;;;;;1.00;1.00;;;;;12.52;74.58;101342.16;5053983;28;45351;-59
2023/01/02 10:41:56;;;;;;;;;0.00;0.00;;;;;12.49;74.78;101327.94;5071334;28;45377;-59
2023/01/02 10:44:31;;;;;;;;;0.00;0.00;;;;;12.46;74.55;101329.22;5070984;28;45638;-58
2023/01/02 10:46:57;;;;;;;;;1.00;1.00;;;;;12.50;74.26;101343.41;5038440;28;45524;-60
2023/01/02 10:49:22;;;;;;;;;1.25;1.25;;;;;12.20;74.67;101306.97;5075713;28;45417;-59
2023/01/02 10:52:04;;;;;;;;;1.00;1.00;;;;;12.56;74.56;101370.09;5065614;27;45793;-60
2023/01/02 10:54:29;;;;;;;;;0.60;0.60;;;;;12.54;74.33;101370.31;5039668;28;46546;-58
2023/01/02 10:56:56;;;;;;;;;0.00;0.00;;;;;12.59;74.45;101389.81;5074399;28;45584;-58
2023/01/02 10:59:24;;;;;;;;;0.00;0.00;;;;;12.46;74.39;101367.75;5090904;27;45682;-58
2023/01/02 11:01:57;;;;;;;;;1.40;1.40;;;;;12.43;74.45;101351.69;5040799;28;45399;-56
2023/01/02 11:04:27;;;;;;;;;4.80;3.00;;;;;12.71;73.88;101383.69;5074932;28;45507;-59
2023/01/02 11:06:54;;;;;;;;;1.80;1.00;;;;;12.74;73.73;101377.75;5075294;28;46344;-60
2023/01/02 11:09:28;;;;;;;;;0.80;0.80;;;;;12.59;73.46;101351.25;5075503;28;45398;-59
2023/01/02 11:12:11;;;;;;;;;1.80;0.80;;;;;12.83;73.08;101378.38;5058275;28;45581;-60
2023/01/02 11:14:36;;;;;;;;;0.00;0.00;;;;;12.88;73.14;101395.97;5075764;28;45832;-59
2023/01/02 11:17:21;;;;;;;;;1.00;1.00;;;;;12.93;72.66;101403.63;5073482;28;46579;-59
2023/01/02 11:19:53;;;;;;;;;0.80;0.80;;;;;12.87;73.10;101397.03;5051773;28;45843;-60
2023/01/02 11:22:20;;;;;;;;;1.00;1.00;;;;;13.00;72.25;101398.97;5053042;28;45445;-58
2023/01/02 11:24:55;;;;;;;;;1.00;1.00;;;;;12.87;71.97;101376.91;5073920;28;45415;-54
2023/01/02 11:27:20;;;;;;;;;0.40;0.00;;;;;13.07;71.83;101389.84;5074588;28;46593;-59
2023/01/02 11:29:46;;;;;;;;;1.00;1.00;;;;;13.18;71.97;101385.59;5075095;28;45863;-61
2023/01/02 11:32:25;;;;;;;;;1.60;0.80;;;;;13.39;71.63;101388.09;5058805;28;45474;-60
2023/01/02 11:35:01;;;;;;;;;0.00;0.00;;;;;13.55;70.81;101391.47;5092314;27;45442;-59